createdAt,value
2022-08-20T00:04:02.157Z,41.40
2022-08-20T00:09:04.559Z,41.25
2022-08-20T00:14:07.274Z,42.95
2022-08-20T00:19:09.593Z,36.33
2022-08-20T00:24:11.259Z,42.85
2022-08-20T00:29:13.188Z,38.95
2022-08-20T00:34:18.301Z,44.42
2022-08-20T00:39:20.004Z,45.10
2022-08-20T00:44:22.812Z,45.95
2022-08-20T00:49:28.532Z,45.30
2022-08-20T00:54:35.371Z,39.88
2022-08-20T00:59:41.666Z,43.15
2022-08-20T01:04:49.705Z,44.25
2022-08-20T01:09:57.846Z,47.45
2022-08-20T01:15:03.556Z,50.45
2022-08-20T01:20:10.576Z,52.20
2022-08-20T01:25:23.904Z,54.47
2022-08-20T01:30:28.813Z,51.88
2022-08-20T01:35:36.921Z,54.58
2022-08-20T01:40:58.748Z,57.20
2022-08-20T01:46:01.384Z,54.38
2022-08-20T01:51:19.473Z,52.50
2022-08-20T01:56:25.966Z,56.05
2022-08-20T02:01:46.790Z,55.80
2022-08-20T02:06:58.236Z,54.47
2022-08-20T02:12:01.035Z,55.35
2022-08-20T02:17:02.885Z,52.42
2022-08-20T02:22:32.332Z,54.35
2022-08-20T02:27:34.013Z,50.60
2022-08-20T02:32:37.929Z,50.17
2022-08-20T02:37:42.417Z,57.63
2022-08-20T02:42:44.612Z,57.35
2022-08-20T02:47:46.907Z,61.65
2022-08-20T02:52:51.864Z,64.50
2022-08-20T02:57:57.515Z,60.03
2022-08-20T03:03:01.379Z,62.97
2022-08-20T03:08:04.057Z,65.25
2022-08-20T03:13:06.754Z,68.97
2022-08-20T03:18:08.578Z,63.85
2022-08-20T03:23:10.695Z,56.42
2022-08-20T03:28:13.484Z,56.38
2022-08-20T03:33:16.503Z,52.22
2022-08-20T03:38:25.004Z,51.95
2022-08-20T03:43:35.305Z,41.42
2022-08-20T03:48:37.924Z,43.15
2022-08-20T03:53:39.570Z,43.83
2022-08-20T03:58:41.216Z,38.10
2022-08-20T04:03:42.896Z,39.40
2022-08-20T04:08:44.553Z,33.55
2022-08-20T04:13:46.196Z,30.88
2022-08-20T04:19:01.877Z,23.23
2022-08-20T04:24:05.770Z,19.42
2022-08-20T04:29:08.228Z,20.30
2022-08-20T04:34:09.952Z,15.40
2022-08-20T04:39:11.593Z,12.85
2022-08-20T04:44:13.302Z,10.50
2022-08-20T04:49:15.202Z,9.32
2022-08-20T04:54:16.870Z,7.03
2022-08-20T04:59:18.519Z,7.90
2022-08-20T05:04:20.162Z,6.28
2022-08-20T05:09:21.812Z,10.23
2022-08-20T05:14:23.471Z,9.82
2022-08-20T05:19:25.547Z,12.13
2022-08-20T05:24:27.561Z,15.63
2022-08-20T05:29:31.690Z,13.40
2022-08-20T05:34:33.408Z,14.43
2022-08-20T05:39:37.490Z,14.98
2022-08-20T05:44:39.330Z,15.07
2022-08-20T05:49:41.014Z,15.25
2022-08-20T05:54:42.668Z,15.90
2022-08-20T05:59:44.331Z,16.63
2022-08-20T06:04:46.085Z,20.35
2022-08-20T06:09:57.861Z,18.17
2022-08-20T06:14:59.575Z,19.35
2022-08-20T06:20:06.558Z,26.95
2022-08-20T06:25:10.325Z,29.27
2022-08-20T06:30:14.989Z,36.95
2022-08-20T06:35:20.007Z,41.72
2022-08-20T06:40:25.761Z,39.67
2022-08-20T06:45:31.973Z,43.38
2022-08-20T06:50:47.036Z,39.85
2022-08-20T06:55:54.351Z,40.30
2022-08-20T07:00:56.089Z,39.67
2022-08-20T07:05:58.039Z,41.08
2022-08-20T07:10:59.845Z,45.92
2022-08-20T07:16:01.527Z,47.70
2022-08-20T07:21:03.956Z,51.33
2022-08-20T07:26:08.127Z,42.85
2022-08-20T07:31:28.537Z,43.00
2022-08-20T07:36:33.322Z,37.97
2022-08-20T07:41:35.096Z,37.92
2022-08-20T07:46:36.754Z,35.40
2022-08-20T07:51:38.476Z,33.15
2022-08-20T07:56:40.120Z,39.65
2022-08-20T08:01:42.105Z,33.78
2022-08-20T08:06:45.330Z,36.67
2022-08-20T08:11:50.295Z,36.13
2022-08-20T08:16:54.896Z,35.38
2022-08-20T08:21:58.744Z,36.55
2022-08-20T08:27:00.713Z,44.63
2022-08-20T08:32:04.621Z,33.80
2022-08-20T08:37:06.535Z,28.42
2022-08-20T08:42:27.162Z,27.92
2022-08-20T08:47:35.708Z,29.23
2022-08-20T08:52:41.298Z,28.95
2022-08-20T08:57:42.965Z,32.25
2022-08-20T09:03:07.560Z,34.35
2022-08-20T09:08:16.846Z,37.17
2022-08-20T09:13:19.320Z,34.03
2022-08-20T09:18:20.982Z,39.85
2022-08-20T09:23:22.678Z,40.20
2022-08-20T09:28:24.597Z,42.72
2022-08-20T09:33:34.088Z,43.97
2022-08-20T09:38:35.746Z,42.70
2022-08-20T09:43:37.392Z,44.88
2022-08-20T09:48:39.198Z,45.10
2022-08-20T09:53:49.019Z,44.70
2022-08-20T09:58:53.433Z,41.10
2022-08-20T10:03:55.068Z,41.03
2022-08-20T10:08:56.720Z,40.85
2022-08-20T10:13:58.848Z,39.22
2022-08-20T10:19:00.798Z,37.30
2022-08-20T10:24:02.641Z,44.15
2022-08-20T10:29:04.297Z,43.03
2022-08-20T10:34:06.014Z,43.22
2022-08-20T10:39:07.688Z,45.78
2022-08-20T10:44:09.392Z,49.47
2022-08-20T10:49:11.522Z,50.85
2022-08-20T10:54:15.525Z,51.65
2022-08-20T10:59:17.157Z,53.65
2022-08-20T11:04:18.865Z,47.70
2022-08-20T11:09:20.571Z,44.20
2022-08-20T11:14:22.264Z,49.72
2022-08-20T11:19:23.921Z,44.60
2022-08-20T11:24:25.617Z,49.58
2022-08-20T11:29:30.975Z,48.83
2022-08-20T11:34:35.166Z,49.17
2022-08-20T11:39:41.615Z,50.38
2022-08-20T11:44:43.869Z,47.25
2022-08-20T11:49:45.549Z,49.28
2022-08-20T11:54:47.176Z,48.78
2022-08-20T11:59:52.181Z,49.85
2022-08-20T12:04:54.037Z,45.97
2022-08-20T12:09:55.792Z,41.72
2022-08-20T12:14:57.441Z,41.65
2022-08-20T12:20:01.528Z,39.38
2022-08-20T12:25:04.925Z,40.35
2022-08-20T12:30:14.009Z,44.60
2022-08-20T12:35:17.715Z,44.42
2022-08-20T12:40:32.405Z,42.38
2022-08-20T12:45:35.874Z,39.65
2022-08-20T12:50:39.960Z,41.78
2022-08-20T12:55:41.639Z,45.80
2022-08-20T13:00:48.608Z,40.92
2022-08-20T13:05:52.413Z,38.90
2022-08-20T13:10:54.106Z,41.30
2022-08-20T13:15:55.763Z,38.42
2022-08-20T13:20:57.414Z,42.60
2022-08-20T13:25:59.102Z,37.72
2022-08-20T13:31:02.173Z,36.05
2022-08-20T13:36:04.228Z,35.15
2022-08-20T13:41:06.048Z,32.60
2022-08-20T13:46:07.778Z,32.50
2022-08-20T13:51:09.457Z,33.03
2022-08-20T13:56:11.120Z,32.88
2022-08-20T14:01:12.972Z,34.13
2022-08-20T14:06:14.689Z,34.20
2022-08-20T14:11:17.705Z,34.10
2022-08-20T14:16:25.355Z,31.85
2022-08-20T14:21:29.721Z,29.67
2022-08-20T14:26:31.412Z,31.15
2022-08-20T14:31:33.079Z,29.42
2022-08-20T14:36:34.708Z,28.17
2022-08-20T14:41:36.357Z,29.10
2022-08-20T14:46:38.020Z,29.80
2022-08-20T14:51:39.702Z,27.92
2022-08-20T14:56:41.359Z,27.52
2022-08-20T15:01:43.219Z,28.63
2022-08-20T15:06:46.117Z,25.80
2022-08-20T15:11:48.012Z,28.08
2022-08-20T15:16:49.703Z,28.13
2022-08-20T15:21:51.372Z,25.52
2022-08-20T15:26:53.050Z,30.15
2022-08-20T15:31:54.816Z,30.17
2022-08-20T15:36:59.197Z,28.40
2022-08-20T15:42:00.913Z,30.73
2022-08-20T15:47:15.258Z,34.10
2022-08-20T15:52:17.571Z,33.17
2022-08-20T15:57:32.237Z,34.60
2022-08-20T16:02:52.059Z,34.20
2022-08-20T16:08:17.101Z,38.72
2022-08-20T16:13:22.468Z,30.63
2022-08-20T16:18:30.597Z,33.03
2022-08-20T16:23:35.541Z,31.73
2022-08-20T16:29:04.935Z,39.10
2022-08-20T16:34:32.426Z,37.65
2022-08-20T16:39:51.237Z,48.10
2022-08-20T16:44:56.656Z,47.03
2022-08-20T16:50:03.773Z,42.58
2022-08-20T16:55:05.614Z,41.90
2022-08-20T17:00:18.982Z,46.90
2022-08-20T17:05:23.447Z,46.35
2022-08-20T17:10:29.254Z,49.75
2022-08-20T17:15:35.123Z,52.00
2022-08-20T17:20:45.112Z,56.75
2022-08-20T17:26:00.387Z,56.72
2022-08-20T17:31:02.211Z,62.40
2022-08-20T17:36:26.288Z,63.35
2022-08-20T17:41:36.119Z,62.65
2022-08-20T17:46:44.176Z,61.40
2022-08-20T17:51:52.743Z,62.35
2022-08-20T17:57:00.461Z,62.28
2022-08-20T18:02:03.752Z,60.67
2022-08-20T18:07:18.241Z,56.63
2022-08-20T18:12:34.334Z,52.17
2022-08-20T18:17:57.734Z,56.60
2022-08-20T18:23:10.432Z,55.67
2022-08-20T18:28:26.613Z,56.15
2022-08-20T18:33:36.485Z,50.33
2022-08-20T18:38:43.873Z,54.53
2022-08-20T18:43:45.706Z,56.45
2022-08-20T18:49:03.433Z,54.70
2022-08-20T18:54:05.208Z,48.88
2022-08-20T18:59:13.741Z,56.30
2022-08-20T19:04:26.086Z,47.65
2022-08-20T19:09:36.491Z,52.58
2022-08-20T19:14:54.150Z,45.75
2022-08-20T19:20:10.540Z,44.78
2022-08-20T19:25:33.149Z,42.75
2022-08-20T19:30:38.816Z,48.17
2022-08-20T19:35:40.620Z,45.35
2022-08-20T19:40:46.071Z,49.40
2022-08-20T19:45:51.752Z,46.13
2022-08-20T19:51:13.881Z,43.65
2022-08-20T19:56:23.653Z,43.28
2022-08-20T20:01:25.589Z,43.55
2022-08-20T20:06:28.646Z,47.40
2022-08-20T20:11:36.842Z,49.00
2022-08-20T20:16:41.067Z,46.90
2022-08-20T20:21:49.652Z,56.88
2022-08-20T20:26:51.701Z,57.55
2022-08-20T20:31:59.316Z,58.33
2022-08-20T20:37:13.285Z,62.05
2022-08-20T20:42:26.349Z,54.85
2022-08-20T20:47:32.497Z,52.10
2022-08-20T20:52:49.342Z,59.40
2022-08-20T20:57:53.242Z,58.88
2022-08-20T21:02:55.519Z,56.28
2022-08-20T21:08:03.086Z,58.70
2022-08-20T21:13:08.107Z,60.05
2022-08-20T21:18:09.887Z,59.13
2022-08-20T21:23:11.592Z,59.15
2022-08-20T21:28:13.331Z,60.00
2022-08-20T21:33:14.978Z,50.90
2022-08-20T21:38:16.624Z,60.65
2022-08-20T21:43:18.811Z,57.88
2022-08-20T21:48:20.636Z,57.60
2022-08-20T21:53:23.044Z,53.75
2022-08-20T21:58:24.722Z,57.15
2022-08-20T22:03:29.836Z,51.15
2022-08-20T22:08:33.058Z,54.05
2022-08-20T22:13:35.428Z,57.35
2022-08-20T22:18:37.761Z,54.28
2022-08-20T22:23:40.211Z,55.88
2022-08-20T22:28:43.779Z,53.70
2022-08-20T22:33:45.440Z,56.17
2022-08-20T22:38:47.837Z,51.30
2022-08-20T22:43:57.486Z,47.85
2022-08-20T22:48:59.668Z,50.92
2022-08-20T22:54:03.899Z,49.00
2022-08-20T22:59:06.602Z,44.90
2022-08-20T23:04:23.733Z,44.75
2022-08-20T23:09:25.886Z,52.25
2022-08-20T23:14:27.682Z,60.72
2022-08-20T23:19:29.387Z,54.90
2022-08-20T23:24:31.195Z,52.92
2022-08-20T23:29:33.380Z,57.50
2022-08-20T23:34:35.362Z,69.50
2022-08-20T23:39:37.430Z,67.60
2022-08-20T23:44:39.576Z,70.53
2022-08-20T23:49:41.244Z,89.88
2022-08-20T23:54:43.289Z,77.38
2022-08-20T23:59:44.980Z,84.20
